Time;durP1;ratioP1;P1;durP2;ratioP2;P2;SDS_P1;SDS_P2;PMS_P1;PMS_P2;Temp;Humidity;BMP_temperature;BMP_pressure;BME280_temperature;BME280_humidity;BME280_pressure;Samples;Min_cycle;Max_cycle;Signal;HPM_P1;HPM_P2
2022/01/15 00:00:36;;;;;;;6.43;3.67;;;;;;;4.16;93.86;103461.16;5017584;28;96864;-36
2022/01/15 00:03:03;;;;;;;11.38;4.85;;;;;;;4.15;94.21;103458.50;5017607;28;99304;-37
2022/01/15 00:05:30;;;;;;;17.75;6.53;;;;;;;4.28;93.72;103475.56;5019095;28;97133;-37
2022/01/15 00:07:57;;;;;;;19.27;5.57;;;;;;;4.31;93.96;103478.25;5017823;28;96590;-36
2022/01/15 00:10:26;;;;;;;13.95;5.40;;;;;;;4.21;94.01;103459.41;5019339;28;96623;-36
2022/01/15 00:12:51;;;;;;;15.25;5.50;;;;;;;4.18;93.53;103445.09;5018266;28;97910;-36
2022/01/15 00:15:23;;;;;;;18.98;5.90;;;;;;;4.32;93.85;103461.28;5018869;28;97283;-37
2022/01/15 00:17:55;;;;;;;10.25;4.18;;;;;;;4.32;93.96;103466.66;5019161;28;96770;-37
2022/01/15 00:20:20;;;;;;;16.70;4.78;;;;;;;4.29;93.61;103472.91;5019183;28;96454;-36
2022/01/15 00:22:48;;;;;;;11.35;4.05;;;;;;;4.15;93.71;103451.34;5018740;28;97831;-36
2022/01/15 00:25:14;;;;;;;17.65;5.22;;;;;;;4.19;93.79;103447.75;5018522;28;96485;-37
2022/01/15 00:27:40;;;;;;;11.50;5.13;;;;;;;4.09;93.71;103440.53;5017502;28;96653;-36
2022/01/15 00:30:06;;;;;;;11.23;3.97;;;;;;;4.21;93.63;103456.72;5019433;28;96747;-36
2022/01/15 00:32:31;;;;;;;16.38;3.88;;;;;;;4.15;93.58;103456.69;5018186;28;98180;-37
2022/01/15 00:34:57;;;;;;;11.55;5.72;;;;;;;3.94;94.01;103401.13;5018226;28;97785;-37
2022/01/15 00:37:22;;;;;;;10.05;3.75;;;;;;;4.06;94.21;103428.91;5016810;28;96724;-36
2022/01/15 00:39:47;;;;;;;12.93;5.15;;;;;;;4.06;93.98;103429.81;5018990;28;96703;-36
2022/01/15 00:42:14;;;;;;;11.95;4.28;;;;;;;4.11;93.94;103440.56;5017133;28;125391;-36
2022/01/15 00:44:41;;;;;;;9.25;3.50;;;;;;;4.07;93.87;103438.75;5016782;28;100793;-36
2022/01/15 00:47:06;;;;;;;13.45;4.10;;;;;;;3.96;94.12;103422.59;5018458;28;96577;-36
2022/01/15 00:49:32;;;;;;;9.30;3.25;;;;;;;4.06;93.79;103437.84;5018899;28;96858;-37
2022/01/15 00:51:57;;;;;;;13.95;4.57;;;;;;;3.93;94.27;103414.50;5018191;28;97936;-36
2022/01/15 00:54:22;;;;;;;9.80;3.65;;;;;;;3.93;94.19;103409.13;5017644;28;118279;-36
2022/01/15 00:56:47;;;;;;;7.97;3.35;;;;;;;4.00;93.95;103428.00;5017459;28;112676;-36
2022/01/15 00:59:14;;;;;;;8.65;3.22;;;;;;;3.86;93.99;103404.59;5015732;28;110365;-36
2022/01/15 01:01:39;;;;;;;12.77;5.70;;;;;;;3.88;94.45;103411.78;5015786;28;99374;-37
2022/01/15 01:04:05;;;;;;;13.25;5.20;;;;;;;3.82;94.05;103396.56;5017979;28;97438;-37
2022/01/15 01:06:30;;;;;;;22.88;5.75;;;;;;;3.87;94.27;103391.22;5017091;28;96583;-36
2022/01/15 01:08:55;;;;;;;12.32;6.13;;;;;;;4.00;94.00;103406.53;5018553;28;96760;-37
2022/01/15 01:11:40;;;;;;;10.07;4.00;;;;;;;3.87;94.06;103383.19;5017435;28;114073;-36
2022/01/15 01:24:30;;;;;;;9.97;3.27;;;;;;;3.87;94.04;103363.53;5017209;28;98077;-36
2022/01/15 01:27:43;;;;;;;15.25;4.90;;;;;;;3.89;93.90;103375.16;5017737;28;97141;-36
2022/01/15 01:32:31;;;;;;;14.02;5.97;;;;;;;4.00;94.08;103384.16;5017564;28;97953;-36
2022/01/15 01:34:56;;;;;;;12.10;4.38;;;;;;;3.87;93.99;103363.53;5017035;28;99322;-37
2022/01/15 01:37:34;;;;;;;12.90;4.70;;;;;;;3.82;94.11;103360.81;5018026;28;96493;-36
2022/01/15 01:42:50;;;;;;;9.15;4.20;;;;;;;3.82;93.96;103361.69;5016447;28;97350;-36
2022/01/15 01:45:16;;;;;;;11.85;4.82;;;;;;;3.77;94.38;103351.84;5015458;28;100878;-36
2022/01/15 01:47:43;;;;;;;9.80;4.00;;;;;;;3.80;93.61;103373.31;5016436;28;96528;-36
2022/01/15 01:50:08;;;;;;;5.78;2.00;;;;;;;3.83;93.89;103390.28;5017869;28;96737;-36
2022/01/15 01:52:34;;;;;;;14.60;3.38;;;;;;;3.59;94.04;103361.50;5016823;28;98083;-36
2022/01/15 01:54:59;;;;;;;10.05;3.75;;;;;;;3.69;94.36;103373.19;5016729;28;113718;-37
2022/01/15 01:57:24;;;;;;;8.85;3.50;;;;;;;3.57;94.04;103355.25;5017346;28;96485;-37
2022/01/15 01:59:50;;;;;;;5.72;3.00;;;;;;;3.66;94.22;103370.50;5017046;28;96766;-36
2022/01/15 02:02:15;;;;;;;12.60;4.50;;;;;;;3.59;94.02;103352.59;5015013;28;114417;-36
2022/01/15 02:04:40;;;;;;;12.77;4.43;;;;;;;3.69;94.45;103359.81;5015638;28;99885;-36
2022/01/15 02:07:06;;;;;;;13.30;2.75;;;;;;;3.56;94.28;103336.50;5017463;28;96982;-36
2022/01/15 02:09:31;;;;;;;14.70;4.80;;;;;;;3.65;94.33;103352.66;5016087;28;96839;-36
2022/01/15 02:11:56;;;;;;;10.55;2.78;;;;;;;3.54;94.44;103320.41;5017088;28;97853;-37
2022/01/15 02:14:29;;;;;;;7.63;3.58;;;;;;;3.52;94.16;103330.19;5016070;28;120167;-37
2022/01/15 02:16:56;;;;;;;6.30;2.50;;;;;;;3.53;94.42;103325.75;5015510;28;96527;-36
2022/01/15 02:19:24;;;;;;;7.78;3.88;;;;;;;3.53;94.18;103326.66;5015967;28;96854;-36
2022/01/15 02:24:15;;;;;;;5.95;2.88;;;;;;;3.62;94.35;103341.88;5016924;28;97872;-36
2022/01/15 02:26:40;;;;;;;10.73;2.88;;;;;;;3.52;94.16;103329.31;5017277;28;96451;-36
2022/01/15 02:29:07;;;;;;;11.93;4.93;;;;;;;3.61;94.61;103329.38;5017094;28;96839;-36
2022/01/15 02:31:34;;;;;;;12.68;3.17;;;;;;;3.51;94.59;103328.41;5016808;28;97930;-37
2022/01/15 02:34:02;;;;;;;6.25;2.72;;;;;;;3.42;94.54;103322.97;5015655;28;101472;-36
2022/01/15 02:36:33;;;;;;;7.55;3.10;;;;;;;3.53;94.80;103328.44;5017295;28;97492;-36
2022/01/15 02:38:59;;;;;;;9.93;4.43;;;;;;;3.44;94.67;103313.19;5015649;28;96961;-37
2022/01/15 02:41:29;;;;;;;4.13;1.42;;;;;;;3.49;94.33;103330.19;5016259;28;97483;-36
2022/01/15 02:43:55;;;;;;;8.85;3.10;;;;;;;3.39;94.36;103305.09;5015070;28;99241;-37
2022/01/15 02:46:45;;;;;;;7.13;2.83;;;;;;;3.46;94.38;103311.41;5016856;28;96594;-36
2022/01/15 02:49:09;;;;;;;5.60;1.90;;;;;;;3.43;94.33;103297.97;5016774;28;96578;-36
2022/01/15 02:51:35;;;;;;;6.45;1.85;;;;;;;3.40;94.80;103285.44;5016574;28;97858;-36
2022/01/15 02:54:03;;;;;;;8.95;2.70;;;;;;;3.39;94.34;103281.00;5014909;28;100971;-37
2022/01/15 02:56:34;;;;;;;8.35;3.03;;;;;;;3.33;94.54;103272.00;5015198;28;96548;-36
2022/01/15 02:59:02;;;;;;;4.38;1.95;;;;;;;3.34;94.34;103285.41;5018229;28;96859;-37
2022/01/15 03:01:29;;;;;;;5.45;1.98;;;;;;;3.36;94.48;103296.13;5019863;28;97388;-36
2022/01/15 03:03:54;;;;;;;4.68;2.50;;;;;;;3.27;94.47;103280.91;5019858;28;97896;-36
2022/01/15 03:06:20;;;;;;;9.85;3.67;;;;;;;3.33;94.32;103290.75;5019950;28;96626;-36
2022/01/15 03:08:47;;;;;;;11.02;3.42;;;;;;;3.39;94.37;103298.84;5020146;28;96892;-37
2022/01/15 03:11:13;;;;;;;5.63;2.13;;;;;;;3.26;94.53;103284.44;5018308;28;100666;-36
2022/01/15 03:13:41;;;;;;;3.28;1.17;;;;;;;3.16;94.74;103278.13;5018340;28;98906;-37
2022/01/15 03:16:07;;;;;;;5.85;2.47;;;;;;;3.19;94.51;103277.25;5018846;28;96954;-37
2022/01/15 03:18:33;;;;;;;9.70;2.92;;;;;;;3.17;94.28;103265.63;5018591;28;96792;-36
2022/01/15 03:20:58;;;;;;;13.02;3.67;;;;;;;3.27;94.32;103290.72;5018004;28;99020;-36
2022/01/15 03:23:24;;;;;;;4.70;2.55;;;;;;;3.27;94.68;103280.00;5018991;28;122179;-36
2022/01/15 03:25:49;;;;;;;5.80;2.55;;;;;;;3.26;94.62;103275.53;5019035;28;112382;-36
2022/01/15 03:28:14;;;;;;;3.83;2.47;;;;;;;3.30;94.78;103275.56;5019894;28;96719;-36
2022/01/15 03:30:40;;;;;;;8.60;3.47;;;;;;;3.22;94.73;103258.56;5018057;28;125316;-36
2022/01/15 03:33:06;;;;;;;8.23;2.53;;;;;;;3.36;94.74;103269.34;5019490;28;97339;-36
2022/01/15 03:35:33;;;;;;;4.68;2.17;;;;;;;3.22;94.68;103236.19;5019734;28;97702;-36
2022/01/15 03:37:58;;;;;;;7.05;3.30;;;;;;;3.35;94.36;103256.84;5018267;28;96906;-36
2022/01/15 03:40:24;;;;;;;6.68;2.05;;;;;;;3.30;94.16;103258.59;5018739;28;118175;-36
2022/01/15 03:42:49;;;;;;;7.50;3.53;;;;;;;3.18;94.41;103232.63;5018975;28;105113;-36
2022/01/15 03:45:15;;;;;;;6.60;2.58;;;;;;;3.15;94.32;103227.25;5019164;28;96899;-36
2022/01/15 03:47:43;;;;;;;2.90;1.67;;;;;;;3.17;94.79;103239.75;5020312;28;96763;-37
2022/01/15 03:50:08;;;;;;;10.90;2.47;;;;;;;3.16;94.50;103232.59;5017586;28;100773;-37
2022/01/15 03:52:34;;;;;;;3.95;1.40;;;;;;;3.11;94.68;103230.78;5018807;28;98015;-36
2022/01/15 03:55:00;;;;;;;5.45;2.85;;;;;;;3.16;94.76;103255.81;5017475;28;96656;-36
2022/01/15 03:57:34;;;;;;;8.05;2.00;;;;;;;3.09;94.91;103249.50;5018981;28;96888;-36
2022/01/15 04:00:00;;;;;;;5.32;2.55;;;;;;;3.13;94.50;103234.38;5018626;28;98034;-36
2022/01/15 04:02:27;;;;;;;17.73;2.80;;;;;;;3.25;94.18;103255.88;5018732;28;97354;-37
2022/01/15 04:04:53;;;;;;;6.80;2.33;;;;;;;3.08;94.20;103236.13;5017788;28;96630;-36
2022/01/15 04:07:18;;;;;;;6.55;3.55;;;;;;;3.18;94.55;103262.06;5019224;28;96808;-36
2022/01/15 04:09:43;;;;;;;6.57;3.10;;;;;;;3.16;94.18;103258.47;5017826;28;111219;-37
2022/01/15 04:12:09;;;;;;;10.30;2.38;;;;;;;3.01;94.52;103228.91;5016696;28;127612;-37
2022/01/15 04:14:34;;;;;;;7.93;2.60;;;;;;;3.05;94.39;103217.31;5017855;28;96523;-37
2022/01/15 04:16:59;;;;;;;6.85;1.55;;;;;;;3.06;94.32;103225.38;5019644;28;96736;-36
2022/01/15 04:19:25;;;;;;;6.25;2.47;;;;;;;3.03;94.42;103216.41;5018051;28;98330;-37
2022/01/15 04:21:51;;;;;;;3.13;1.83;;;;;;;3.02;94.13;103215.53;5017135;28;98951;-36
2022/01/15 04:24:17;;;;;;;10.25;3.17;;;;;;;3.13;94.54;103227.22;5019088;28;96502;-36
2022/01/15 04:26:43;;;;;;;3.28;2.03;;;;;;;3.18;94.34;103233.50;5019027;28;96723;-36
2022/01/15 04:29:08;;;;;;;4.50;1.67;;;;;;;3.17;94.09;103225.44;5018518;28;97996;-36
2022/01/15 04:31:50;;;;;;;6.00;2.05;;;;;;;3.14;94.19;103215.63;5018558;28;97721;-37
2022/01/15 04:34:20;;;;;;;;;;;;;;;3.17;94.50;103225.44;5017942;28;96571;-36
2022/01/15 04:36:46;;;;;;;1.45;0.95;;;;;;;2.95;94.22;103201.19;5019479;28;96842;-36
2022/01/15 04:39:12;;;;;;;8.35;3.08;;;;;;;3.06;94.44;103217.34;5018317;28;97976;-37
2022/01/15 04:41:38;;;;;;;6.53;2.33;;;;;;;3.03;94.39;103216.41;5016887;28;98800;-37
2022/01/15 04:44:07;;;;;;;5.72;2.25;;;;;;;2.95;94.22;103214.56;5018442;28;96506;-36
2022/01/15 04:46:34;;;;;;;3.53;2.25;;;;;;;3.00;94.27;103219.06;5018614;28;96734;-37
2022/01/15 04:49:00;;;;;;;4.85;2.28;;;;;;;2.97;94.05;103215.47;5016753;28;98924;-37
2022/01/15 04:51:25;;;;;;;8.80;2.13;;;;;;;2.86;94.25;103177.06;5018222;28;97745;-36
2022/01/15 04:53:50;;;;;;;12.85;3.95;;;;;;;2.79;94.20;103182.31;5018727;28;96510;-36
2022/01/15 04:56:16;;;;;;;3.22;1.83;;;;;;;2.91;94.07;103206.53;5017414;28;111503;-37
2022/01/15 04:58:41;;;;;;;3.28;1.20;;;;;;;2.85;94.26;103201.13;5017504;28;102433;-36
2022/01/15 05:01:06;;;;;;;8.77;2.65;;;;;;;2.86;94.33;103200.22;5018042;28;97745;-37
2022/01/15 05:03:34;;;;;;;5.85;2.65;;;;;;;2.71;94.25;103182.25;5018266;28;96544;-36
2022/01/15 05:06:00;;;;;;;7.63;2.35;;;;;;;2.85;94.02;103188.63;5018618;28;96766;-36
2022/01/15 05:08:25;;;;;;;10.25;1.38;;;;;;;2.83;93.78;103193.06;5017580;28;97888;-37
2022/01/15 05:10:53;;;;;;;10.27;2.33;;;;;;;2.89;93.99;103190.44;5017976;28;97751;-37
2022/01/15 05:13:23;;;;;;;9.80;2.83;;;;;;;2.87;93.67;103184.19;5018369;28;96585;-36
2022/01/15 05:15:48;;;;;;;5.38;2.63;;;;;;;2.90;93.93;103185.97;5018184;28;96493;-36
2022/01/15 05:18:14;;;;;;;7.18;3.10;;;;;;;2.87;94.04;103177.94;5016386;28;99557;-37
2022/01/15 05:20:44;;;;;;;4.32;1.50;;;;;;;2.76;94.02;103153.75;5016912;28;97821;-36
2022/01/15 05:23:10;;;;;;;12.60;2.08;;;;;;;2.76;94.00;103160.03;5018400;28;96614;-36
2022/01/15 05:25:35;;;;;;;10.18;3.20;;;;;;;2.80;94.30;103160.94;5018497;28;96850;-36
2022/01/15 05:28:00;;;;;;;5.13;1.70;;;;;;;2.80;93.92;103154.69;5017711;28;96896;-37
2022/01/15 05:30:26;;;;;;;7.82;3.15;;;;;;;2.70;94.04;103130.53;5017151;28;112016;-37
2022/01/15 05:32:51;;;;;;;3.50;2.00;;;;;;;2.64;93.91;103127.78;5017444;28;96498;-36
2022/01/15 05:35:17;;;;;;;1.77;0.77;;;;;;;2.64;94.04;103130.47;5018025;28;96801;-36
2022/01/15 05:37:42;;;;;;;5.43;1.63;;;;;;;2.71;94.06;103132.31;5017668;28;104953;-37
2022/01/15 05:40:08;;;;;;;4.57;1.80;;;;;;;2.73;94.30;103138.56;5017528;28;97772;-37
2022/01/15 05:42:34;;;;;;;4.43;1.55;;;;;;;2.56;94.42;103116.13;5016388;28;96661;-36
2022/01/15 05:44:59;;;;;;;0.95;0.43;;;;;;;2.58;94.60;103111.69;5017650;28;96883;-37
2022/01/15 05:47:24;;;;;;;2.15;0.77;;;;;;;2.60;94.42;103111.69;5017329;28;97312;-37
2022/01/15 05:49:51;;;;;;;3.20;1.55;;;;;;;2.68;94.33;103134.06;5017566;28;101004;-37
2022/01/15 05:52:16;;;;;;;4.10;1.08;;;;;;;2.50;94.63;103103.63;5017862;28;96633;-37
2022/01/15 05:54:42;;;;;;;7.18;2.92;;;;;;;2.63;94.76;103123.34;5017885;28;96739;-37
2022/01/15 05:57:07;;;;;;;8.88;3.08;;;;;;;2.53;94.91;103100.97;5016249;28;109835;-36
2022/01/15 05:59:32;;;;;;;10.30;3.22;;;;;;;2.46;94.34;103085.75;5014841;28;99406;-37
2022/01/15 06:01:58;;;;;;;3.97;2.00;;;;;;;2.60;95.03;103114.38;5017289;28;96513;-37
2022/01/15 06:04:23;;;;;;;3.25;1.90;;;;;;;2.56;94.53;103118.81;5017686;28;96779;-37
2022/01/15 06:06:48;;;;;;;2.13;1.50;;;;;;;2.58;94.68;103110.81;5017217;28;97837;-36
2022/01/15 06:09:14;;;;;;;5.07;1.92;;;;;;;2.46;95.03;103096.44;5016353;28;122540;-37
2022/01/15 06:11:40;;;;;;;0.93;0.55;;;;;;;2.48;94.48;103096.44;5016057;28;96556;-36
2022/01/15 06:14:05;;;;;;;6.22;1.42;;;;;;;2.42;94.95;103101.75;5017877;28;96770;-37
2022/01/15 06:16:31;;;;;;;4.03;2.15;;;;;;;2.45;95.12;103104.44;5017315;28;96760;-37
2022/01/15 06:18:56;;;;;;;4.65;1.48;;;;;;;2.53;94.70;103113.44;5016881;28;97417;-37
2022/01/15 06:21:22;;;;;;;9.07;2.28;;;;;;;2.47;94.62;103100.00;5016870;28;96571;-37
2022/01/15 06:23:47;;;;;;;7.80;1.63;;;;;;;2.53;94.71;103108.97;5017346;28;96752;-37
2022/01/15 06:26:13;;;;;;;9.73;3.50;;;;;;;2.51;94.67;103104.50;5015013;28;111496;-37
2022/01/15 06:28:39;;;;;;;2.53;1.10;;;;;;;2.54;94.79;103109.88;5015249;28;99174;-36
2022/01/15 06:31:04;;;;;;;5.80;2.40;;;;;;;2.45;95.25;103107.13;5016046;28;96476;-37
2022/01/15 06:33:29;;;;;;;1.98;1.30;;;;;;;2.48;95.09;103104.47;5020335;28;100772;-37
2022/01/15 06:35:54;;;;;;;1.20;0.47;;;;;;;2.45;95.41;103105.34;5018929;28;99107;-37
2022/01/15 06:38:20;;;;;;;4.35;1.20;;;;;;;2.42;95.57;103097.28;5020593;28;97360;-37
2022/01/15 06:40:45;;;;;;;6.15;1.75;;;;;;;2.45;95.46;103101.78;5020920;28;97065;-37
2022/01/15 06:43:11;;;;;;;0.20;0.05;;;;;;;2.39;95.21;103097.28;5020513;28;96838;-37
2022/01/15 06:45:36;;;;;;;0.77;0.47;;;;;;;2.45;95.24;103107.13;5019821;28;97988;-37
2022/01/15 06:48:02;;;;;;;2.22;1.63;;;;;;;2.50;95.46;103111.66;5020191;28;97858;-36
2022/01/15 06:50:28;;;;;;;8.35;4.05;;;;;;;2.54;95.31;103110.75;5020475;28;96529;-36
2022/01/15 06:52:54;;;;;;;5.18;2.30;;;;;;;2.45;95.43;103099.09;5019090;28;96767;-36
2022/01/15 06:55:20;;;;;;;9.75;4.38;;;;;;;2.41;94.82;103087.50;5018481;28;99364;-37
2022/01/15 06:57:46;;;;;;;5.00;2.67;;;;;;;2.45;94.95;103083.03;5018126;28;99275;-37
2022/01/15 07:00:13;;;;;;;5.40;1.83;;;;;;;2.59;95.39;103105.44;5015708;28;96957;-37
2022/01/15 07:02:38;;;;;;;8.43;2.60;;;;;;;2.52;94.98;103096.47;5016515;28;96836;-37
2022/01/15 07:05:05;;;;;;;6.82;2.90;;;;;;;2.55;95.09;103095.59;5017746;28;97298;-37
2022/01/15 07:07:31;;;;;;;5.60;3.75;;;;;;;2.51;95.42;103094.69;5015768;28;101898;-37
2022/01/15 07:09:56;;;;;;;7.63;2.47;;;;;;;2.60;94.94;103111.69;5017260;28;96541;-37
2022/01/15 07:12:22;;;;;;;6.47;1.00;;;;;;;2.53;95.24;103102.75;5016023;28;96828;-37
2022/01/15 07:14:47;;;;;;;9.93;1.42;;;;;;;2.49;95.18;103096.47;5017314;28;97509;-37
2022/01/15 07:17:13;;;;;;;4.40;1.98;;;;;;;2.52;95.47;103104.50;5015810;28;99589;-36
2022/01/15 07:19:38;;;;;;;9.63;2.85;;;;;;;2.54;95.72;103100.06;5017412;28;96467;-37
2022/01/15 07:22:05;;;;;;;4.90;2.30;;;;;;;2.42;95.63;103075.00;5016826;28;101515;-37
2022/01/15 07:24:30;;;;;;;19.60;4.55;;;;;;;2.48;95.28;103083.06;5015492;28;102035;-37
2022/01/15 07:26:55;;;;;;;8.25;3.95;;;;;;;2.54;95.29;103099.16;5017144;28;102169;-36
2022/01/15 07:29:23;;;;;;;8.73;3.05;;;;;;;2.57;95.22;103098.31;5015750;28;96597;-37
2022/01/15 07:31:48;;;;;;;3.40;1.90;;;;;;;2.46;95.24;103085.75;5017139;28;96834;-37
2022/01/15 07:34:15;;;;;;;2.75;1.63;;;;;;;2.59;94.75;103097.44;5016412;28;97377;-37
2022/01/15 07:36:41;;;;;;;10.10;3.45;;;;;;;2.57;95.08;103090.28;5015436;28;99254;-37
2022/01/15 07:39:07;;;;;;;13.50;4.20;;;;;;;2.63;94.65;103104.59;5015742;28;96747;-37
2022/01/15 07:41:34;;;;;;;11.55;3.58;;;;;;;2.48;95.07;103078.63;5015352;28;96652;-37
2022/01/15 07:43:59;;;;;;;5.63;2.13;;;;;;;2.44;94.89;103068.78;5014543;28;100798;-37
2022/01/15 07:46:25;;;;;;;4.70;3.38;;;;;;;2.56;95.09;103094.75;5016411;28;99262;-37
2022/01/15 07:48:51;;;;;;;9.90;2.28;;;;;;;2.46;95.15;103080.41;5015628;28;96589;-37
2022/01/15 07:51:17;;;;;;;4.60;2.67;;;;;;;2.45;95.07;103064.31;4999112;28;96782;-37
2022/01/15 07:53:42;;;;;;;4.60;2.25;;;;;;;2.52;95.03;103091.13;5016562;28;96757;-37
2022/01/15 07:56:08;;;;;;;6.57;3.00;;;;;;;2.45;95.30;103070.56;5016225;28;97344;-37
2022/01/15 07:58:33;;;;;;;5.10;2.95;;;;;;;2.53;95.07;103084.91;5015320;28;118134;-37
2022/01/15 08:00:58;;;;;;;10.85;3.13;;;;;;;2.57;95.08;103088.50;5015537;28;117846;-37
2022/01/15 08:03:23;;;;;;;2.78;1.95;;;;;;;2.38;95.14;103054.47;5015784;28;120178;-37
2022/01/15 08:05:49;;;;;;;6.47;3.30;;;;;;;2.53;95.48;103082.25;5015481;28;126488;-37
2022/01/15 08:08:15;;;;;;;4.03;2.55;;;;;;;2.55;95.26;103076.88;5016196;28;105449;-36
2022/01/15 08:10:41;;;;;;;10.20;3.08;;;;;;;2.46;95.78;103061.66;5016450;28;96741;-37
2022/01/15 08:13:06;;;;;;;6.20;2.00;;;;;;;2.46;95.52;103055.44;5016342;28;97306;-36
2022/01/15 08:15:33;;;;;;;4.75;2.10;;;;;;;2.53;95.26;103068.84;5016399;28;106417;-37
2022/01/15 08:17:58;;;;;;;3.55;1.92;;;;;;;2.52;95.61;103067.06;5016510;28;96614;-37
2022/01/15 08:20:24;;;;;;;1.48;1.08;;;;;;;2.52;95.29;103055.47;5016461;28;96801;-36
2022/01/15 08:22:51;;;;;;;7.07;2.55;;;;;;;2.50;95.59;103035.81;5015526;28;97993;-37
2022/01/15 08:25:17;;;;;;;13.15;6.03;;;;;;;2.61;94.82;103062.66;5016141;28;96922;-37
2022/01/15 08:27:42;;;;;;;11.43;4.07;;;;;;;2.49;95.05;103055.44;5014979;28;96599;-37
2022/01/15 08:30:08;;;;;;;13.82;4.35;;;;;;;2.34;95.21;103048.22;5016341;28;96827;-36
2022/01/15 08:32:34;;;;;;;9.13;2.30;;;;;;;2.51;95.54;103069.72;5015898;28;97881;-37
2022/01/15 08:34:59;;;;;;;11.10;4.35;;;;;;;2.44;95.14;103044.72;5014445;28;100761;-36
2022/01/15 08:37:25;;;;;;;6.80;3.20;;;;;;;2.54;95.37;103062.63;5016212;28;96449;-36
2022/01/15 08:39:50;;;;;;;10.40;5.35;;;;;;;2.46;95.35;103044.75;5015568;28;117283;-37
2022/01/15 08:42:15;;;;;;;7.15;4.13;;;;;;;2.62;95.29;103060.03;5014225;28;99239;-37
2022/01/15 08:44:43;;;;;;;5.25;2.55;;;;;;;2.46;95.04;103039.38;5015022;28;121613;-36
2022/01/15 08:47:09;;;;;;;8.50;3.85;;;;;;;2.61;95.49;103057.31;5015613;28;96591;-36
2022/01/15 08:49:35;;;;;;;5.43;2.88;;;;;;;2.52;95.61;103040.31;5016161;28;96769;-37
2022/01/15 08:52:01;;;;;;;6.85;2.95;;;;;;;2.50;95.22;103027.81;5015721;28;97174;-37
2022/01/15 08:54:26;;;;;;;11.07;3.60;;;;;;;2.55;95.33;103021.63;5013987;28;100995;-37
2022/01/15 08:56:51;;;;;;;5.75;3.05;;;;;;;2.65;95.40;103043.09;5015044;28;108533;-37
2022/01/15 08:59:17;;;;;;;6.65;2.95;;;;;;;2.62;94.77;103035.03;5014987;28;96861;-36
2022/01/15 09:01:42;;;;;;;3.53;1.77;;;;;;;2.55;95.31;103034.06;5015400;28;99253;-36
2022/01/15 09:04:07;;;;;;;8.40;3.00;;;;;;;2.64;94.85;103046.63;5015371;28;113019;-36
2022/01/15 09:06:33;;;;;;;7.18;3.35;;;;;;;2.54;95.42;103035.88;5013903;28;108592;-37
2022/01/15 09:08:58;;;;;;;8.82;4.28;;;;;;;2.63;95.35;103055.56;5015760;28;96840;-36
2022/01/15 09:11:24;;;;;;;9.30;4.93;;;;;;;2.54;95.04;103051.91;5014698;28;97818;-36
2022/01/15 09:13:49;;;;;;;6.07;2.90;;;;;;;2.57;95.36;103056.38;5013106;28;122967;-36
2022/01/15 09:16:15;;;;;;;21.50;5.97;;;;;;;2.51;95.01;103057.25;5015582;28;96477;-37
2022/01/15 09:18:40;;;;;;;7.05;2.40;;;;;;;2.47;95.41;103046.50;5015717;28;96807;-37
2022/01/15 09:21:06;;;;;;;4.72;2.63;;;;;;;2.47;95.29;103060.78;5015433;28;97383;-37
2022/01/15 09:23:31;;;;;;;6.65;2.55;;;;;;;2.48;95.12;103040.25;5015081;28;97811;-37
2022/01/15 09:25:58;;;;;;;6.50;2.80;;;;;;;2.42;95.41;103032.22;5013927;28;96776;-36
2022/01/15 09:31:10;;;;;;;13.88;5.80;;;;;;;2.46;95.25;103055.44;5015219;28;97140;-37
2022/01/15 09:33:35;;;;;;;14.02;5.38;;;;;;;2.48;95.18;103057.22;5013480;28;98924;-36
2022/01/15 09:36:00;;;;;;;11.20;5.85;;;;;;;2.37;95.20;103028.63;5014358;28;103590;-37
2022/01/15 09:38:25;;;;;;;9.63;3.50;;;;;;;2.44;95.26;103034.00;5015284;28;96822;-36
2022/01/15 09:40:51;;;;;;;10.18;4.60;;;;;;;2.49;95.28;103048.31;5014978;28;97804;-37
2022/01/15 09:43:16;;;;;;;7.85;2.63;;;;;;;2.55;95.20;103052.81;5014777;28;97932;-36
2022/01/15 09:45:44;;;;;;;5.88;2.75;;;;;;;2.26;94.87;102996.44;5013659;28;96606;-37
2022/01/15 09:48:10;;;;;;;8.05;3.67;;;;;;;2.49;95.13;103036.72;5015064;28;96795;-36
2022/01/15 09:50:42;;;;;;;8.70;2.38;;;;;;;2.52;95.55;103053.69;5013298;28;99114;-37
2022/01/15 09:53:08;;;;;;;13.70;3.97;;;;;;;2.43;95.26;103040.25;5013669;28;98791;-36
2022/01/15 09:55:33;;;;;;;8.10;1.92;;;;;;;2.48;95.28;103042.94;5015108;28;96532;-36
2022/01/15 09:57:59;;;;;;;9.35;3.55;;;;;;;2.43;95.51;103032.25;5014154;28;101141;-37
2022/01/15 10:00:25;;;;;;;12.77;3.58;;;;;;;2.44;95.24;103050.06;5012364;28;99737;-37
2022/01/15 10:02:52;;;;;;;3.58;1.92;;;;;;;2.48;95.22;103065.25;5014589;28;97242;-36
2022/01/15 10:05:18;;;;;;;14.52;5.45;;;;;;;2.41;95.39;103054.47;5013324;28;96737;-37
2022/01/15 10:08:00;;;;;;;6.80;3.10;;;;;;;2.44;95.18;103050.06;5012875;28;96845;-37
2022/01/15 10:10:27;;;;;;;20.27;5.28;;;;;;;2.41;95.32;103052.72;5012985;28;101120;-37
2022/01/15 10:12:53;;;;;;;6.65;3.75;;;;;;;2.27;95.67;103036.56;5012986;28;100982;-37
2022/01/15 10:15:19;;;;;;;5.57;3.25;;;;;;;2.30;94.99;103038.34;5014957;28;96454;-36
2022/01/15 10:17:45;;;;;;;19.48;6.90;;;;;;;2.22;95.23;103019.59;5013746;28;96814;-36
2022/01/15 10:20:18;;;;;;;16.10;4.95;;;;;;;2.32;95.23;103040.16;5012887;28;98999;-37
2022/01/15 10:22:45;;;;;;;8.82;2.45;;;;;;;2.29;95.83;103010.72;5014365;28;97474;-37
2022/01/15 10:25:20;;;;;;;9.38;3.03;;;;;;;2.33;95.24;103017.88;5012760;28;96541;-37
2022/01/15 10:27:56;;;;;;;7.68;2.65;;;;;;;2.38;95.79;103017.91;5014732;28;96539;-36
2022/01/15 10:30:24;;;;;;;4.85;2.13;;;;;;;2.48;95.65;103022.47;5013998;28;97980;-37
2022/01/15 10:32:54;;;;;;;8.48;2.00;;;;;;;2.57;95.40;103024.28;5012733;28;101027;-36
2022/01/15 10:35:20;;;;;;;4.30;2.10;;;;;;;2.62;95.40;103030.59;5014479;28;96540;-37
2022/01/15 10:37:50;;;;;;;9.98;2.10;;;;;;;2.70;95.47;103033.31;5014627;28;96733;-36
2022/01/15 10:40:16;;;;;;;10.13;3.35;;;;;;;2.71;95.12;103030.63;5012668;28;99376;-36
2022/01/15 10:42:50;;;;;;;10.50;2.42;;;;;;;2.60;95.02;103016.31;5012934;28;100820;-37
2022/01/15 10:45:17;;;;;;;7.85;3.85;;;;;;;2.71;94.77;103027.06;5012898;28;96590;-36
2022/01/15 10:47:49;;;;;;;6.30;2.78;;;;;;;2.71;94.89;103040.44;5014483;28;96761;-37
2022/01/15 10:50:21;;;;;;;;;;;;;;;2.75;95.27;103037.78;5014202;28;97942;-36
2022/01/15 10:52:47;;;;;;;;;;;;;;;2.72;95.30;103039.56;5014514;28;96735;-37
2022/01/15 10:55:15;;;;;;;4.05;2.60;;;;;;;2.64;94.84;103026.13;5014388;28;96473;-37
2022/01/15 10:57:55;;;;;;;4.30;1.88;;;;;;;2.64;94.94;103026.13;5013935;28;96891;-36
2022/01/15 11:00:28;;;;;;;4.28;2.47;;;;;;;2.64;94.80;103030.56;5012011;28;99101;-36
2022/01/15 11:02:57;;;;;;;4.63;1.80;;;;;;;2.48;94.73;103003.75;5012339;28;98910;-37
2022/01/15 11:05:28;;;;;;;9.10;2.38;;;;;;;2.58;95.04;103014.50;5012733;28;96543;-37
2022/01/15 11:08:03;;;;;;;8.85;3.20;;;;;;;2.64;94.58;103026.13;5012931;28;96696;-36
2022/01/15 11:10:36;;;;;;;7.65;1.88;;;;;;;2.59;94.65;103010.94;5012331;28;98902;-37
2022/01/15 11:13:04;;;;;;;6.55;2.97;;;;;;;2.58;94.85;103020.75;5012286;28;99094;-37
2022/01/15 11:15:29;;;;;;;7.10;3.08;;;;;;;2.57;94.59;103029.63;5013335;28;96520;-36
2022/01/15 11:17:55;;;;;;;11.02;3.55;;;;;;;2.50;94.69;103004.66;5013422;28;117678;-37
2022/01/15 11:20:23;;;;;;;6.10;1.80;;;;;;;2.63;94.15;103028.81;5015335;28;101385;-37
2022/01/15 11:22:49;;;;;;;2.53;1.58;;;;;;;2.57;94.12;103023.41;5015411;28;98920;-37
2022/01/15 11:25:14;;;;;;;11.45;3.38;;;;;;;2.43;94.19;103000.16;5017850;28;96468;-37
2022/01/15 11:27:40;;;;;;;3.58;1.70;;;;;;;2.41;94.13;102988.53;5017165;28;96949;-36
2022/01/15 11:30:07;;;;;;;5.13;2.45;;;;;;;2.61;94.48;103007.38;5015434;28;100724;-37
2022/01/15 11:32:33;;;;;;;10.10;4.45;;;;;;;2.47;94.46;102985.88;5015701;28;99033;-36
2022/01/15 11:35:09;;;;;;;5.03;3.05;;;;;;;2.63;94.40;102999.38;5016978;28;96710;-36
2022/01/15 11:37:53;;;;;;;4.75;2.30;;;;;;;2.69;94.61;102989.59;5015794;28;96713;-36
2022/01/15 11:40:37;;;;;;;6.63;3.53;;;;;;;2.58;94.11;102958.34;5016556;28;97353;-36
2022/01/15 11:43:23;;;;;;;4.93;2.70;;;;;;;2.69;94.10;102980.66;5016849;28;97602;-36
2022/01/15 11:45:50;;;;;;;7.13;3.15;;;;;;;2.67;94.14;102985.09;5017244;28;96700;-37
2022/01/15 11:48:23;;;;;;;2.75;1.77;;;;;;;2.60;93.62;102968.16;5017094;28;96794;-37